createdAt,value
2023-11-23T00:04:26.102Z,96.34
2023-11-23T00:09:33.818Z,96.36
2023-11-23T00:14:41.145Z,96.43
2023-11-23T00:19:48.958Z,96.39
2023-11-23T00:24:56.631Z,96.52
2023-11-23T00:30:04.182Z,96.41
2023-11-23T00:35:11.960Z,96.53
2023-11-23T00:40:19.618Z,96.70
2023-11-23T00:45:27.009Z,96.72
2023-11-23T00:50:34.673Z,96.81
2023-11-23T00:55:42.076Z,96.66
2023-11-23T01:00:49.619Z,96.82
2023-11-23T01:05:57.413Z,96.95
2023-11-23T01:11:04.742Z,96.93
2023-11-23T01:16:13.247Z,97.02
2023-11-23T01:21:21.224Z,96.96
2023-11-23T01:26:28.514Z,96.95
2023-11-23T01:31:36.011Z,96.92
2023-11-23T01:36:43.324Z,96.93
2023-11-23T01:41:50.669Z,96.82
2023-11-23T01:46:59.618Z,96.71
2023-11-23T01:52:07.640Z,96.73
2023-11-23T01:57:17.225Z,96.69
2023-11-23T02:02:24.574Z,96.59
2023-11-23T02:07:31.809Z,96.57
2023-11-23T02:12:39.867Z,96.67
2023-11-23T02:17:47.375Z,96.71
2023-11-23T02:22:54.770Z,96.66
2023-11-23T02:28:02.049Z,96.63
2023-11-23T02:33:12.597Z,96.94
2023-11-23T02:38:19.999Z,96.79
2023-11-23T02:43:27.992Z,96.80
2023-11-23T02:48:35.375Z,96.87
2023-11-23T02:53:45.404Z,96.93
2023-11-23T02:58:52.955Z,96.90
2023-11-23T03:04:00.670Z,96.82
2023-11-23T03:09:09.789Z,96.92
2023-11-23T03:14:17.850Z,96.87
2023-11-23T03:19:25.052Z,96.96
2023-11-23T03:24:32.844Z,96.73
2023-11-23T03:29:40.281Z,96.91
2023-11-23T03:34:47.863Z,96.93
2023-11-23T03:39:56.552Z,96.75
2023-11-23T03:45:04.967Z,96.74
2023-11-23T03:50:12.810Z,96.78
2023-11-23T03:55:20.210Z,96.79
2023-11-23T04:00:29.251Z,96.81
2023-11-23T04:05:38.643Z,97.03
2023-11-23T04:10:46.068Z,96.81
2023-11-23T04:15:53.305Z,96.79
2023-11-23T04:21:00.700Z,96.72
2023-11-23T04:26:09.277Z,96.65
2023-11-23T04:31:16.407Z,96.71
2023-11-23T04:36:24.759Z,96.61
2023-11-23T04:41:32.006Z,96.60
2023-11-23T04:46:39.403Z,96.49
2023-11-23T04:51:46.719Z,96.51
2023-11-23T04:56:54.393Z,96.74
2023-11-23T05:02:04.102Z,96.53
2023-11-23T05:07:11.585Z,96.51
2023-11-23T05:12:19.251Z,96.50
2023-11-23T05:17:26.531Z,96.18
2023-11-23T05:22:34.410Z,95.64
2023-11-23T05:27:41.798Z,95.32
2023-11-23T05:32:49.293Z,94.79
2023-11-23T05:37:56.585Z,94.48
2023-11-23T05:43:06.175Z,94.49
2023-11-23T05:48:13.992Z,93.93
2023-11-23T05:53:21.235Z,93.81
2023-11-23T05:58:29.210Z,93.87
2023-11-23T06:03:38.472Z,93.42
2023-11-23T06:08:45.744Z,93.53
2023-11-23T06:13:53.023Z,93.28
2023-11-23T06:19:03.518Z,93.07
2023-11-23T06:24:12.535Z,92.80
2023-11-23T06:29:19.992Z,92.50
2023-11-23T06:34:27.431Z,92.23
2023-11-23T06:39:38.291Z,92.29
2023-11-23T06:44:45.689Z,92.31
2023-11-23T06:49:53.061Z,92.47
2023-11-23T06:55:00.452Z,92.17
2023-11-23T07:00:18.365Z,91.63
2023-11-23T07:05:26.662Z,92.02
2023-11-23T07:10:35.740Z,92.08
2023-11-23T07:15:43.241Z,91.48
2023-11-23T07:20:54.651Z,91.20
2023-11-23T07:26:02.204Z,91.03
2023-11-23T07:31:10.675Z,91.12
2023-11-23T07:36:18.277Z,91.07
2023-11-23T07:41:25.737Z,91.19
2023-11-23T07:46:33.425Z,90.65
2023-11-23T07:51:41.144Z,90.48
2023-11-23T07:56:49.448Z,90.88
2023-11-23T08:01:57.933Z,90.78
2023-11-23T08:07:05.582Z,91.28
2023-11-23T08:12:13.310Z,91.03
2023-11-23T08:17:20.664Z,90.34
2023-11-23T08:22:28.162Z,90.55
2023-11-23T08:27:36.622Z,90.66
2023-11-23T08:32:45.361Z,90.36
2023-11-23T08:37:52.709Z,90.35
2023-11-23T08:43:00.435Z,90.63
2023-11-23T08:48:09.380Z,90.72
2023-11-23T08:53:17.370Z,90.62
2023-11-23T08:58:25.739Z,90.58
2023-11-23T09:03:34.143Z,90.29
2023-11-23T09:08:42.840Z,90.86
2023-11-23T09:13:50.217Z,91.06
2023-11-23T09:19:34.363Z,90.53
2023-11-23T09:24:41.939Z,90.87
2023-11-23T09:29:49.792Z,91.08
2023-11-23T09:34:57.550Z,91.42
2023-11-23T09:40:06.622Z,91.08
2023-11-23T09:45:19.147Z,91.23
2023-11-23T09:50:34.027Z,91.04
2023-11-23T09:55:45.073Z,91.42
2023-11-23T10:00:53.749Z,91.38
2023-11-23T10:06:01.355Z,90.86
2023-11-23T10:11:09.406Z,90.34
2023-11-23T10:16:17.377Z,89.83
2023-11-23T10:21:25.346Z,89.61
2023-11-23T10:26:33.720Z,89.70
2023-11-23T10:31:41.210Z,89.56
2023-11-23T10:36:51.117Z,89.20
2023-11-23T10:41:58.761Z,89.02
2023-11-23T10:47:09.011Z,87.89
2023-11-23T10:52:19.677Z,87.29
2023-11-23T10:57:28.769Z,86.45
2023-11-23T11:02:36.575Z,85.98
2023-11-23T11:07:44.185Z,85.77
2023-11-23T11:12:52.571Z,84.69
2023-11-23T11:18:08.580Z,85.33
2023-11-23T11:23:16.117Z,85.56
2023-11-23T11:28:24.609Z,85.09
2023-11-23T11:33:33.684Z,85.36
2023-11-23T11:38:42.153Z,85.66
2023-11-23T11:43:50.824Z,85.07
2023-11-23T11:48:59.754Z,85.03
2023-11-23T11:54:08.357Z,85.51
2023-11-23T11:59:19.065Z,85.58
2023-11-23T12:04:26.589Z,86.08
2023-11-23T12:09:41.251Z,85.39
2023-11-23T12:14:51.457Z,85.45
2023-11-23T12:19:59.356Z,85.36
2023-11-23T12:25:10.539Z,86.12
2023-11-23T12:30:18.171Z,85.89
2023-11-23T12:35:27.737Z,86.02
2023-11-23T12:40:35.322Z,84.89
2023-11-23T12:45:44.750Z,84.63
2023-11-23T12:50:52.609Z,85.02
2023-11-23T12:56:00.578Z,84.84
2023-11-23T13:01:09.168Z,84.86
2023-11-23T13:06:17.553Z,84.83
2023-11-23T13:11:25.148Z,83.93
2023-11-23T13:16:32.929Z,84.17
2023-11-23T13:21:40.449Z,85.17
2023-11-23T13:26:48.307Z,84.55
2023-11-23T13:31:59.302Z,84.67
2023-11-23T13:37:07.030Z,84.80
2023-11-23T13:42:15.906Z,85.05
2023-11-23T13:47:25.345Z,85.05
2023-11-23T13:52:33.583Z,85.83
2023-11-23T13:57:41.297Z,85.94
2023-11-23T14:02:48.943Z,86.15
2023-11-23T14:07:57.232Z,86.18
2023-11-23T14:13:05.289Z,86.03
2023-11-23T14:18:14.789Z,85.77
2023-11-23T14:23:22.462Z,85.74
2023-11-23T14:28:29.992Z,85.79
2023-11-23T14:33:37.405Z,85.61
2023-11-23T14:38:44.884Z,85.81
2023-11-23T14:43:52.904Z,85.82
2023-11-23T14:49:00.217Z,85.91
2023-11-23T14:54:10.860Z,86.05
2023-11-23T14:59:20.147Z,86.17
2023-11-23T15:04:27.704Z,86.20
2023-11-23T15:09:35.331Z,85.92
2023-11-23T15:14:43.491Z,86.09
2023-11-23T15:19:51.741Z,86.15
2023-11-23T15:25:08.312Z,85.84
2023-11-23T15:30:18.225Z,85.73
2023-11-23T15:35:25.723Z,85.67
2023-11-23T15:40:33.007Z,85.40
2023-11-23T15:45:42.651Z,85.04
2023-11-23T15:50:50.509Z,85.04
2023-11-23T15:55:57.895Z,84.95
2023-11-23T16:01:09.309Z,85.13
2023-11-23T16:06:16.756Z,85.14
2023-11-23T16:11:24.029Z,84.70
2023-11-23T16:16:32.217Z,84.72
2023-11-23T16:21:41.459Z,85.21
2023-11-23T16:26:48.851Z,85.39
2023-11-23T16:32:01.746Z,85.83
2023-11-23T16:37:12.391Z,86.18
2023-11-23T16:42:20.223Z,86.41
2023-11-23T16:47:27.580Z,86.00
2023-11-23T16:52:35.015Z,86.90
2023-11-23T16:57:44.216Z,85.92
2023-11-23T17:02:51.560Z,85.24
2023-11-23T17:07:59.185Z,85.31
2023-11-23T17:13:07.854Z,85.25
2023-11-23T17:18:15.723Z,85.62
2023-11-23T17:23:23.144Z,86.26
2023-11-23T17:28:30.369Z,86.40
2023-11-23T17:33:38.326Z,86.32
2023-11-23T17:38:45.898Z,86.42
2023-11-23T17:43:53.237Z,86.38
2023-11-23T17:49:00.704Z,86.19
2023-11-23T17:54:09.085Z,85.43
2023-11-23T17:59:26.219Z,85.31
2023-11-23T18:04:42.037Z,84.94
2023-11-23T18:09:50.616Z,84.73
2023-11-23T18:14:58.037Z,84.25
2023-11-23T18:20:06.724Z,83.63
2023-11-23T18:25:14.091Z,83.27
2023-11-23T18:30:22.205Z,83.32
2023-11-23T18:35:29.608Z,83.45
2023-11-23T18:40:37.168Z,83.02
2023-11-23T18:45:44.474Z,82.66
2023-11-23T18:50:51.883Z,82.53
2023-11-23T18:55:59.139Z,82.53
2023-11-23T19:01:06.841Z,82.96
2023-11-23T19:06:14.511Z,82.65
2023-11-23T19:11:21.881Z,82.68
2023-11-23T19:16:29.321Z,82.45
2023-11-23T19:21:45.275Z,82.20
2023-11-23T19:26:54.237Z,81.95
2023-11-23T19:32:08.942Z,81.89
2023-11-23T19:37:17.730Z,81.86
2023-11-23T19:42:26.961Z,81.42
2023-11-23T19:47:35.234Z,81.74
2023-11-23T19:52:46.391Z,81.12
2023-11-23T19:57:53.845Z,81.21
2023-11-23T20:03:01.246Z,80.97
2023-11-23T20:08:13.814Z,81.11
2023-11-23T20:13:21.318Z,80.70
2023-11-23T20:18:29.766Z,81.23
2023-11-23T20:23:37.139Z,81.08
2023-11-23T20:28:45.183Z,81.24
2023-11-23T20:33:52.618Z,81.68
2023-11-23T20:39:00.195Z,81.79
2023-11-23T20:44:08.008Z,81.65
2023-11-23T20:49:15.555Z,81.21
2023-11-23T20:54:23.847Z,80.32
2023-11-23T20:59:32.045Z,80.21
2023-11-23T21:04:41.754Z,79.71
2023-11-23T21:09:51.518Z,79.52
2023-11-23T21:14:59.072Z,79.36
2023-11-23T21:20:07.859Z,78.77
2023-11-23T21:25:15.879Z,78.66
2023-11-23T21:30:23.574Z,78.15
2023-11-23T21:35:33.794Z,78.32
2023-11-23T21:40:41.671Z,78.34
2023-11-23T21:45:49.036Z,78.50
2023-11-23T21:50:56.366Z,78.03
2023-11-23T21:56:04.134Z,77.85
2023-11-23T22:01:12.267Z,77.99
2023-11-23T22:06:19.798Z,78.39
2023-11-23T22:11:27.404Z,77.97
2023-11-23T22:16:35.266Z,77.94
2023-11-23T22:21:45.894Z,79.37
2023-11-23T22:26:54.236Z,81.65
2023-11-23T22:32:02.502Z,83.29
2023-11-23T22:37:10.848Z,85.19
2023-11-23T22:42:19.504Z,87.57
2023-11-23T22:47:26.807Z,89.84
2023-11-23T22:52:34.267Z,91.75
2023-11-23T22:57:41.768Z,94.86
2023-11-23T23:02:49.299Z,97.61
2023-11-23T23:07:58.099Z,99.81
2023-11-23T23:13:05.715Z,100.00
2023-11-23T23:18:13.277Z,100.00
2023-11-23T23:23:20.743Z,100.00
2023-11-23T23:28:32.107Z,100.00
2023-11-23T23:33:40.227Z,100.00
2023-11-23T23:38:47.966Z,100.00
2023-11-23T23:43:55.261Z,100.00
2023-11-23T23:49:02.970Z,100.00
2023-11-23T23:54:10.513Z,100.00
2023-11-23T23:59:17.864Z,100.00
